sensor_id;sensor_type;location;lat;lon;timestamp;P1;durP1;ratioP1;P2;durP2;ratioP2
63046;SDS011;62025;39.238;9.126;2023-12-04T00:01:32;16.33;;;7.78;;
63046;SDS011;62025;39.238;9.126;2023-12-04T00:03:58;12.90;;;6.50;;
63046;SDS011;62025;39.238;9.126;2023-12-04T00:06:24;13.07;;;7.00;;
63046;SDS011;62025;39.238;9.126;2023-12-04T00:08:50;12.20;;;6.32;;
63046;SDS011;62025;39.238;9.126;2023-12-04T00:11:16;13.00;;;6.38;;
63046;SDS011;62025;39.238;9.126;2023-12-04T00:13:41;14.40;;;5.93;;
63046;SDS011;62025;39.238;9.126;2023-12-04T00:16:07;14.07;;;6.45;;
63046;SDS011;62025;39.238;9.126;2023-12-04T00:18:34;16.38;;;6.97;;
63046;SDS011;62025;39.238;9.126;2023-12-04T00:21:00;14.75;;;6.40;;
63046;SDS011;62025;39.238;9.126;2023-12-04T00:23:25;11.68;;;5.63;;
63046;SDS011;62025;39.238;9.126;2023-12-04T00:25:51;12.20;;;5.50;;
63046;SDS011;62025;39.238;9.126;2023-12-04T00:28:19;12.23;;;5.40;;
63046;SDS011;62025;39.238;9.126;2023-12-04T00:30:46;12.30;;;6.03;;
63046;SDS011;62025;39.238;9.126;2023-12-04T00:33:13;15.50;;;5.75;;
63046;SDS011;62025;39.238;9.126;2023-12-04T00:35:39;10.60;;;5.90;;
63046;SDS011;62025;39.238;9.126;2023-12-04T00:38:05;15.20;;;6.22;;
63046;SDS011;62025;39.238;9.126;2023-12-04T00:40:31;17.08;;;5.85;;
63046;SDS011;62025;39.238;9.126;2023-12-04T00:42:57;12.18;;;5.80;;
63046;SDS011;62025;39.238;9.126;2023-12-04T00:45:23;12.27;;;5.82;;
63046;SDS011;62025;39.238;9.126;2023-12-04T00:47:49;11.95;;;6.13;;
63046;SDS011;62025;39.238;9.126;2023-12-04T00:50:15;16.88;;;6.03;;
63046;SDS011;62025;39.238;9.126;2023-12-04T00:52:41;13.20;;;5.50;;
63046;SDS011;62025;39.238;9.126;2023-12-04T00:55:07;14.57;;;5.78;;
63046;SDS011;62025;39.238;9.126;2023-12-04T00:57:33;11.23;;;5.85;;
63046;SDS011;62025;39.238;9.126;2023-12-04T00:59:59;13.15;;;6.00;;
63046;SDS011;62025;39.238;9.126;2023-12-04T01:02:25;14.45;;;5.95;;
63046;SDS011;62025;39.238;9.126;2023-12-04T01:04:51;11.27;;;5.85;;
63046;SDS011;62025;39.238;9.126;2023-12-04T01:07:17;12.73;;;6.10;;
63046;SDS011;62025;39.238;9.126;2023-12-04T01:09:42;13.57;;;5.90;;
63046;SDS011;62025;39.238;9.126;2023-12-04T01:12:08;12.77;;;6.05;;
63046;SDS011;62025;39.238;9.126;2023-12-04T01:14:35;15.68;;;6.30;;
63046;SDS011;62025;39.238;9.126;2023-12-04T01:19:29;12.65;;;5.43;;
63046;SDS011;62025;39.238;9.126;2023-12-04T01:21:55;11.10;;;5.60;;
63046;SDS011;62025;39.238;9.126;2023-12-04T01:24:21;11.23;;;5.45;;
63046;SDS011;62025;39.238;9.126;2023-12-04T01:26:47;19.65;;;5.70;;
63046;SDS011;62025;39.238;9.126;2023-12-04T01:29:13;10.73;;;5.70;;
63046;SDS011;62025;39.238;9.126;2023-12-04T01:31:38;10.70;;;5.43;;
63046;SDS011;62025;39.238;9.126;2023-12-04T01:34:04;14.70;;;5.47;;
63046;SDS011;62025;39.238;9.126;2023-12-04T01:36:30;11.48;;;5.68;;
63046;SDS011;62025;39.238;9.126;2023-12-04T01:38:56;13.68;;;5.50;;
63046;SDS011;62025;39.238;9.126;2023-12-04T01:41:22;13.93;;;5.43;;
63046;SDS011;62025;39.238;9.126;2023-12-04T01:43:48;12.80;;;5.10;;
63046;SDS011;62025;39.238;9.126;2023-12-04T01:46:15;13.98;;;5.47;;
63046;SDS011;62025;39.238;9.126;2023-12-04T01:48:43;10.30;;;5.20;;
63046;SDS011;62025;39.238;9.126;2023-12-04T01:51:12;13.40;;;5.40;;
63046;SDS011;62025;39.238;9.126;2023-12-04T01:53:40;9.38;;;4.95;;
63046;SDS011;62025;39.238;9.126;2023-12-04T01:56:07;9.50;;;4.72;;
63046;SDS011;62025;39.238;9.126;2023-12-04T01:58:34;12.70;;;5.03;;
63046;SDS011;62025;39.238;9.126;2023-12-04T02:01:00;8.77;;;3.97;;
63046;SDS011;62025;39.238;9.126;2023-12-04T02:03:26;11.07;;;4.10;;
63046;SDS011;62025;39.238;9.126;2023-12-04T02:05:53;9.02;;;4.25;;
63046;SDS011;62025;39.238;9.126;2023-12-04T02:08:19;9.02;;;4.25;;
63046;SDS011;62025;39.238;9.126;2023-12-04T02:10:46;12.90;;;4.28;;
63046;SDS011;62025;39.238;9.126;2023-12-04T02:13:12;9.95;;;3.78;;
63046;SDS011;62025;39.238;9.126;2023-12-04T02:15:38;11.25;;;4.47;;
63046;SDS011;62025;39.238;9.126;2023-12-04T02:18:04;11.98;;;4.68;;
63046;SDS011;62025;39.238;9.126;2023-12-04T02:20:30;11.68;;;5.55;;
63046;SDS011;62025;39.238;9.126;2023-12-04T02:23:00;10.82;;;5.80;;
63046;SDS011;62025;39.238;9.126;2023-12-04T02:25:27;12.20;;;4.88;;
63046;SDS011;62025;39.238;9.126;2023-12-04T02:27:54;12.15;;;4.65;;
63046;SDS011;62025;39.238;9.126;2023-12-04T02:30:24;12.10;;;5.15;;
63046;SDS011;62025;39.238;9.126;2023-12-04T02:32:50;14.02;;;4.72;;
63046;SDS011;62025;39.238;9.126;2023-12-04T02:35:20;9.55;;;4.18;;
63046;SDS011;62025;39.238;9.126;2023-12-04T02:37:49;12.70;;;4.10;;
63046;SDS011;62025;39.238;9.126;2023-12-04T02:40:15;9.68;;;4.43;;
63046;SDS011;62025;39.238;9.126;2023-12-04T02:42:41;9.02;;;4.45;;
63046;SDS011;62025;39.238;9.126;2023-12-04T02:45:07;10.70;;;3.95;;
63046;SDS011;62025;39.238;9.126;2023-12-04T02:47:33;9.80;;;3.88;;
63046;SDS011;62025;39.238;9.126;2023-12-04T02:49:59;14.55;;;3.88;;
63046;SDS011;62025;39.238;9.126;2023-12-04T02:52:25;8.98;;;4.00;;
63046;SDS011;62025;39.238;9.126;2023-12-04T02:54:51;10.52;;;4.03;;
63046;SDS011;62025;39.238;9.126;2023-12-04T02:57:17;9.43;;;3.90;;
63046;SDS011;62025;39.238;9.126;2023-12-04T02:59:43;14.98;;;4.47;;
63046;SDS011;62025;39.238;9.126;2023-12-04T03:02:09;7.65;;;3.78;;
63046;SDS011;62025;39.238;9.126;2023-12-04T03:04:35;6.78;;;3.97;;
63046;SDS011;62025;39.238;9.126;2023-12-04T03:07:01;9.20;;;4.03;;
63046;SDS011;62025;39.238;9.126;2023-12-04T03:09:27;11.13;;;3.97;;
63046;SDS011;62025;39.238;9.126;2023-12-04T03:11:53;11.55;;;4.57;;
63046;SDS011;62025;39.238;9.126;2023-12-04T03:14:18;7.40;;;3.88;;
63046;SDS011;62025;39.238;9.126;2023-12-04T03:16:44;12.55;;;4.03;;
63046;SDS011;62025;39.238;9.126;2023-12-04T03:19:10;10.02;;;4.00;;
63046;SDS011;62025;39.238;9.126;2023-12-04T03:21:36;8.88;;;4.28;;
63046;SDS011;62025;39.238;9.126;2023-12-04T03:24:02;10.27;;;4.20;;
63046;SDS011;62025;39.238;9.126;2023-12-04T03:26:28;8.95;;;3.72;;
63046;SDS011;62025;39.238;9.126;2023-12-04T03:28:54;9.77;;;3.30;;
63046;SDS011;62025;39.238;9.126;2023-12-04T03:31:21;9.77;;;3.58;;
63046;SDS011;62025;39.238;9.126;2023-12-04T03:33:49;7.45;;;3.50;;
63046;SDS011;62025;39.238;9.126;2023-12-04T03:36:14;7.88;;;3.35;;
63046;SDS011;62025;39.238;9.126;2023-12-04T03:38:40;9.90;;;3.63;;
63046;SDS011;62025;39.238;9.126;2023-12-04T03:41:13;7.32;;;3.30;;
63046;SDS011;62025;39.238;9.126;2023-12-04T03:43:42;7.47;;;3.38;;
63046;SDS011;62025;39.238;9.126;2023-12-04T03:46:08;8.05;;;2.92;;
63046;SDS011;62025;39.238;9.126;2023-12-04T03:48:34;8.13;;;3.10;;
63046;SDS011;62025;39.238;9.126;2023-12-04T03:50:59;6.45;;;2.92;;
63046;SDS011;62025;39.238;9.126;2023-12-04T03:53:26;6.60;;;3.17;;
63046;SDS011;62025;39.238;9.126;2023-12-04T03:55:52;8.45;;;3.15;;
63046;SDS011;62025;39.238;9.126;2023-12-04T03:58:18;6.05;;;2.95;;
63046;SDS011;62025;39.238;9.126;2023-12-04T04:00:44;8.23;;;3.13;;
63046;SDS011;62025;39.238;9.126;2023-12-04T04:03:10;8.18;;;3.10;;
63046;SDS011;62025;39.238;9.126;2023-12-04T04:05:36;9.27;;;3.25;;
63046;SDS011;62025;39.238;9.126;2023-12-04T04:08:02;7.57;;;2.72;;
63046;SDS011;62025;39.238;9.126;2023-12-04T04:10:28;5.00;;;2.60;;
63046;SDS011;62025;39.238;9.126;2023-12-04T04:12:54;7.50;;;2.95;;
63046;SDS011;62025;39.238;9.126;2023-12-04T04:15:20;5.00;;;2.85;;
63046;SDS011;62025;39.238;9.126;2023-12-04T04:17:46;12.70;;;3.28;;
63046;SDS011;62025;39.238;9.126;2023-12-04T04:20:11;7.07;;;2.88;;
63046;SDS011;62025;39.238;9.126;2023-12-04T04:22:38;7.10;;;2.70;;
63046;SDS011;62025;39.238;9.126;2023-12-04T04:25:06;6.68;;;3.30;;
63046;SDS011;62025;39.238;9.126;2023-12-04T04:27:33;11.82;;;3.83;;
63046;SDS011;62025;39.238;9.126;2023-12-04T04:29:59;8.88;;;3.67;;
63046;SDS011;62025;39.238;9.126;2023-12-04T04:32:25;9.30;;;3.50;;
63046;SDS011;62025;39.238;9.126;2023-12-04T04:34:51;8.25;;;3.47;;
63046;SDS011;62025;39.238;9.126;2023-12-04T04:37:17;7.78;;;3.83;;
63046;SDS011;62025;39.238;9.126;2023-12-04T04:39:44;10.23;;;4.00;;
63046;SDS011;62025;39.238;9.126;2023-12-04T04:42:10;11.43;;;4.25;;
63046;SDS011;62025;39.238;9.126;2023-12-04T04:44:36;8.43;;;3.90;;
63046;SDS011;62025;39.238;9.126;2023-12-04T04:47:02;10.93;;;3.83;;
63046;SDS011;62025;39.238;9.126;2023-12-04T04:49:28;12.45;;;3.90;;
63046;SDS011;62025;39.238;9.126;2023-12-04T04:51:54;10.07;;;4.10;;
63046;SDS011;62025;39.238;9.126;2023-12-04T04:54:19;10.88;;;4.07;;
63046;SDS011;62025;39.238;9.126;2023-12-04T04:56:45;14.02;;;4.18;;
63046;SDS011;62025;39.238;9.126;2023-12-04T04:59:11;9.52;;;3.95;;
63046;SDS011;62025;39.238;9.126;2023-12-04T05:01:37;8.50;;;3.97;;
63046;SDS011;62025;39.238;9.126;2023-12-04T05:04:03;10.63;;;4.13;;
63046;SDS011;62025;39.238;9.126;2023-12-04T05:06:29;10.65;;;3.90;;
63046;SDS011;62025;39.238;9.126;2023-12-04T05:08:55;7.05;;;3.60;;
63046;SDS011;62025;39.238;9.126;2023-12-04T05:11:21;9.43;;;3.80;;
63046;SDS011;62025;39.238;9.126;2023-12-04T05:13:47;8.30;;;3.60;;
63046;SDS011;62025;39.238;9.126;2023-12-04T05:16:13;10.02;;;4.28;;
63046;SDS011;62025;39.238;9.126;2023-12-04T05:18:39;11.88;;;3.53;;
63046;SDS011;62025;39.238;9.126;2023-12-04T05:21:09;10.52;;;3.58;;
63046;SDS011;62025;39.238;9.126;2023-12-04T05:23:36;10.07;;;3.55;;
63046;SDS011;62025;39.238;9.126;2023-12-04T05:26:03;9.88;;;3.45;;
63046;SDS011;62025;39.238;9.126;2023-12-04T05:28:30;7.70;;;2.97;;
63046;SDS011;62025;39.238;9.126;2023-12-04T05:30:56;8.90;;;3.30;;
63046;SDS011;62025;39.238;9.126;2023-12-04T05:33:22;12.32;;;3.20;;
63046;SDS011;62025;39.238;9.126;2023-12-04T05:35:48;6.05;;;3.00;;
63046;SDS011;62025;39.238;9.126;2023-12-04T05:38:16;9.77;;;3.35;;
63046;SDS011;62025;39.238;9.126;2023-12-04T05:40:42;7.15;;;3.25;;
63046;SDS011;62025;39.238;9.126;2023-12-04T05:43:08;9.00;;;3.20;;
63046;SDS011;62025;39.238;9.126;2023-12-04T05:45:34;8.73;;;3.30;;
63046;SDS011;62025;39.238;9.126;2023-12-04T05:48:00;10.20;;;3.60;;
63046;SDS011;62025;39.238;9.126;2023-12-04T05:50:26;14.27;;;4.15;;
63046;SDS011;62025;39.238;9.126;2023-12-04T05:52:51;9.05;;;4.10;;
63046;SDS011;62025;39.238;9.126;2023-12-04T05:55:17;10.93;;;3.65;;
63046;SDS011;62025;39.238;9.126;2023-12-04T05:57:44;8.85;;;3.55;;
63046;SDS011;62025;39.238;9.126;2023-12-04T06:00:10;9.55;;;3.45;;
63046;SDS011;62025;39.238;9.126;2023-12-04T06:02:43;13.82;;;5.95;;
63046;SDS011;62025;39.238;9.126;2023-12-04T06:05:10;12.93;;;7.15;;
63046;SDS011;62025;39.238;9.126;2023-12-04T06:07:37;14.13;;;5.90;;
63046;SDS011;62025;39.238;9.126;2023-12-04T06:10:03;12.10;;;4.35;;
63046;SDS011;62025;39.238;9.126;2023-12-04T06:12:30;10.82;;;3.97;;
63046;SDS011;62025;39.238;9.126;2023-12-04T06:14:56;10.65;;;4.97;;
63046;SDS011;62025;39.238;9.126;2023-12-04T06:17:23;14.52;;;5.47;;
63046;SDS011;62025;39.238;9.126;2023-12-04T06:19:50;13.65;;;5.00;;
63046;SDS011;62025;39.238;9.126;2023-12-04T06:22:16;12.63;;;4.57;;
63046;SDS011;62025;39.238;9.126;2023-12-04T06:24:45;15.68;;;5.07;;
63046;SDS011;62025;39.238;9.126;2023-12-04T06:27:15;11.45;;;4.50;;
63046;SDS011;62025;39.238;9.126;2023-12-04T06:29:43;11.55;;;4.45;;
63046;SDS011;62025;39.238;9.126;2023-12-04T06:32:09;13.88;;;5.18;;
63046;SDS011;62025;39.238;9.126;2023-12-04T06:34:36;10.98;;;5.15;;
63046;SDS011;62025;39.238;9.126;2023-12-04T06:37:02;13.32;;;5.28;;
63046;SDS011;62025;39.238;9.126;2023-12-04T06:39:31;12.85;;;5.55;;
63046;SDS011;62025;39.238;9.126;2023-12-04T06:41:58;12.32;;;5.50;;
63046;SDS011;62025;39.238;9.126;2023-12-04T06:44:25;10.70;;;4.88;;
63046;SDS011;62025;39.238;9.126;2023-12-04T06:46:51;12.77;;;5.70;;
63046;SDS011;62025;39.238;9.126;2023-12-04T06:49:17;11.65;;;5.88;;
63046;SDS011;62025;39.238;9.126;2023-12-04T06:51:44;17.80;;;6.40;;
63046;SDS011;62025;39.238;9.126;2023-12-04T06:54:10;12.30;;;5.80;;
63046;SDS011;62025;39.238;9.126;2023-12-04T06:56:37;12.13;;;5.60;;
63046;SDS011;62025;39.238;9.126;2023-12-04T06:59:03;10.55;;;5.45;;
63046;SDS011;62025;39.238;9.126;2023-12-04T07:01:29;11.35;;;5.60;;
63046;SDS011;62025;39.238;9.126;2023-12-04T07:03:55;12.98;;;5.28;;
63046;SDS011;62025;39.238;9.126;2023-12-04T07:06:21;8.68;;;4.53;;
63046;SDS011;62025;39.238;9.126;2023-12-04T07:08:47;12.07;;;4.03;;
63046;SDS011;62025;39.238;9.126;2023-12-04T07:11:13;9.88;;;3.65;;
63046;SDS011;62025;39.238;9.126;2023-12-04T07:13:42;8.65;;;4.20;;
63046;SDS011;62025;39.238;9.126;2023-12-04T07:16:08;7.38;;;3.42;;
63046;SDS011;62025;39.238;9.126;2023-12-04T07:18:34;9.15;;;3.90;;
63046;SDS011;62025;39.238;9.126;2023-12-04T07:21:00;13.55;;;5.05;;
63046;SDS011;62025;39.238;9.126;2023-12-04T07:23:26;10.15;;;5.90;;
63046;SDS011;62025;39.238;9.126;2023-12-04T07:25:52;10.45;;;5.50;;
63046;SDS011;62025;39.238;9.126;2023-12-04T07:28:18;11.35;;;5.45;;
63046;SDS011;62025;39.238;9.126;2023-12-04T07:30:44;10.18;;;5.72;;
63046;SDS011;62025;39.238;9.126;2023-12-04T07:33:11;10.20;;;5.30;;
63046;SDS011;62025;39.238;9.126;2023-12-04T07:35:37;10.65;;;4.35;;
63046;SDS011;62025;39.238;9.126;2023-12-04T07:38:03;8.50;;;4.80;;
63046;SDS011;62025;39.238;9.126;2023-12-04T07:40:29;11.35;;;5.38;;
63046;SDS011;62025;39.238;9.126;2023-12-04T07:42:54;9.68;;;4.50;;
63046;SDS011;62025;39.238;9.126;2023-12-04T07:45:20;10.98;;;5.53;;
63046;SDS011;62025;39.238;9.126;2023-12-04T07:47:46;11.50;;;7.05;;
63046;SDS011;62025;39.238;9.126;2023-12-04T07:50:12;22.92;;;8.90;;
63046;SDS011;62025;39.238;9.126;2023-12-04T07:52:38;21.73;;;9.18;;
63046;SDS011;62025;39.238;9.126;2023-12-04T07:55:04;23.80;;;7.68;;
63046;SDS011;62025;39.238;9.126;2023-12-04T07:57:30;18.42;;;9.05;;
63046;SDS011;62025;39.238;9.126;2023-12-04T07:59:56;33.90;;;9.43;;
63046;SDS011;62025;39.238;9.126;2023-12-04T08:02:22;23.60;;;10.23;;
63046;SDS011;62025;39.238;9.126;2023-12-04T08:04:48;21.00;;;9.88;;
63046;SDS011;62025;39.238;9.126;2023-12-04T08:07:14;20.48;;;8.55;;
63046;SDS011;62025;39.238;9.126;2023-12-04T08:09:40;17.85;;;8.82;;
63046;SDS011;62025;39.238;9.126;2023-12-04T08:12:06;15.68;;;7.57;;
63046;SDS011;62025;39.238;9.126;2023-12-04T08:14:32;17.55;;;7.00;;
63046;SDS011;62025;39.238;9.126;2023-12-04T08:16:58;12.75;;;5.82;;
63046;SDS011;62025;39.238;9.126;2023-12-04T08:19:24;11.88;;;5.68;;
63046;SDS011;62025;39.238;9.126;2023-12-04T08:21:50;10.88;;;4.50;;
63046;SDS011;62025;39.238;9.126;2023-12-04T08:24:16;8.40;;;3.53;;
63046;SDS011;62025;39.238;9.126;2023-12-04T08:26:46;7.25;;;3.40;;
63046;SDS011;62025;39.238;9.126;2023-12-04T08:29:12;7.13;;;3.72;;
63046;SDS011;62025;39.238;9.126;2023-12-04T08:31:38;9.23;;;3.67;;
63046;SDS011;62025;39.238;9.126;2023-12-04T08:34:04;6.50;;;2.58;;
63046;SDS011;62025;39.238;9.126;2023-12-04T08:36:30;15.18;;;3.13;;
63046;SDS011;62025;39.238;9.126;2023-12-04T08:38:56;4.95;;;3.00;;
63046;SDS011;62025;39.238;9.126;2023-12-04T08:41:21;5.45;;;2.65;;
63046;SDS011;62025;39.238;9.126;2023-12-04T08:43:47;6.43;;;2.75;;
63046;SDS011;62025;39.238;9.126;2023-12-04T08:46:13;8.07;;;3.15;;
63046;SDS011;62025;39.238;9.126;2023-12-04T08:48:40;8.70;;;3.00;;
63046;SDS011;62025;39.238;9.126;2023-12-04T08:51:06;5.53;;;2.80;;
63046;SDS011;62025;39.238;9.126;2023-12-04T08:53:34;6.75;;;2.60;;
63046;SDS011;62025;39.238;9.126;2023-12-04T08:56:00;7.22;;;2.38;;
63046;SDS011;62025;39.238;9.126;2023-12-04T08:58:26;4.60;;;2.45;;
63046;SDS011;62025;39.238;9.126;2023-12-04T09:00:51;10.30;;;2.75;;
63046;SDS011;62025;39.238;9.126;2023-12-04T09:03:17;6.93;;;2.38;;
63046;SDS011;62025;39.238;9.126;2023-12-04T09:05:44;5.63;;;2.40;;
63046;SDS011;62025;39.238;9.126;2023-12-04T09:08:10;4.00;;;2.20;;
63046;SDS011;62025;39.238;9.126;2023-12-04T09:10:36;5.72;;;2.17;;
63046;SDS011;62025;39.238;9.126;2023-12-04T09:13:02;4.85;;;2.47;;
63046;SDS011;62025;39.238;9.126;2023-12-04T09:15:28;7.10;;;2.30;;
63046;SDS011;62025;39.238;9.126;2023-12-04T09:17:53;3.80;;;1.98;;
63046;SDS011;62025;39.238;9.126;2023-12-04T09:20:19;7.65;;;2.70;;
63046;SDS011;62025;39.238;9.126;2023-12-04T09:22:45;11.20;;;2.35;;
63046;SDS011;62025;39.238;9.126;2023-12-04T09:25:11;14.65;;;5.43;;
63046;SDS011;62025;39.238;9.126;2023-12-04T09:27:37;6.60;;;3.22;;
63046;SDS011;62025;39.238;9.126;2023-12-04T09:30:03;7.82;;;3.38;;
63046;SDS011;62025;39.238;9.126;2023-12-04T09:32:30;9.52;;;4.97;;
63046;SDS011;62025;39.238;9.126;2023-12-04T09:34:55;13.90;;;4.38;;
63046;SDS011;62025;39.238;9.126;2023-12-04T09:37:21;10.85;;;4.72;;
63046;SDS011;62025;39.238;9.126;2023-12-04T09:39:47;8.73;;;3.70;;
63046;SDS011;62025;39.238;9.126;2023-12-04T09:42:15;6.28;;;3.92;;
63046;SDS011;62025;39.238;9.126;2023-12-04T09:44:43;9.25;;;3.88;;
63046;SDS011;62025;39.238;9.126;2023-12-04T09:47:12;5.80;;;3.83;;
63046;SDS011;62025;39.238;9.126;2023-12-04T09:49:38;9.60;;;4.30;;
63046;SDS011;62025;39.238;9.126;2023-12-04T09:52:04;8.98;;;3.90;;
63046;SDS011;62025;39.238;9.126;2023-12-04T09:54:32;8.48;;;3.65;;
63046;SDS011;62025;39.238;9.126;2023-12-04T09:57:00;7.45;;;3.88;;
63046;SDS011;62025;39.238;9.126;2023-12-04T09:59:27;6.70;;;4.28;;
63046;SDS011;62025;39.238;9.126;2023-12-04T10:01:55;5.70;;;4.13;;
63046;SDS011;62025;39.238;9.126;2023-12-04T10:04:21;5.32;;;3.05;;
63046;SDS011;62025;39.238;9.126;2023-12-04T10:06:52;4.88;;;3.05;;
63046;SDS011;62025;39.238;9.126;2023-12-04T10:09:18;7.15;;;2.42;;
63046;SDS011;62025;39.238;9.126;2023-12-04T10:11:47;5.53;;;2.08;;
63046;SDS011;62025;39.238;9.126;2023-12-04T10:14:18;4.93;;;1.85;;
63046;SDS011;62025;39.238;9.126;2023-12-04T10:16:45;2.35;;;1.30;;
63046;SDS011;62025;39.238;9.126;2023-12-04T10:19:18;2.75;;;1.75;;
63046;SDS011;62025;39.238;9.126;2023-12-04T10:21:51;4.38;;;2.25;;
63046;SDS011;62025;39.238;9.126;2023-12-04T10:24:28;7.53;;;2.25;;
63046;SDS011;62025;39.238;9.126;2023-12-04T10:27:00;8.00;;;2.00;;
63046;SDS011;62025;39.238;9.126;2023-12-04T10:29:30;4.38;;;2.00;;
63046;SDS011;62025;39.238;9.126;2023-12-04T10:32:09;3.53;;;1.90;;
63046;SDS011;62025;39.238;9.126;2023-12-04T10:34:35;7.78;;;1.67;;
63046;SDS011;62025;39.238;9.126;2023-12-04T10:37:02;6.28;;;1.52;;
63046;SDS011;62025;39.238;9.126;2023-12-04T10:39:30;8.20;;;1.90;;
63046;SDS011;62025;39.238;9.126;2023-12-04T10:42:00;7.07;;;1.70;;
63046;SDS011;62025;39.238;9.126;2023-12-04T10:44:28;7.57;;;1.83;;
63046;SDS011;62025;39.238;9.126;2023-12-04T10:46:59;4.10;;;1.05;;
63046;SDS011;62025;39.238;9.126;2023-12-04T10:49:26;5.80;;;1.60;;
63046;SDS011;62025;39.238;9.126;2023-12-04T10:51:57;7.95;;;1.60;;
63046;SDS011;62025;39.238;9.126;2023-12-04T10:54:26;5.55;;;1.55;;
63046;SDS011;62025;39.238;9.126;2023-12-04T10:56:52;5.35;;;1.80;;
63046;SDS011;62025;39.238;9.126;2023-12-04T10:59:27;6.53;;;2.00;;
63046;SDS011;62025;39.238;9.126;2023-12-04T11:01:57;3.35;;;1.70;;
63046;SDS011;62025;39.238;9.126;2023-12-04T11:04:28;6.15;;;3.30;;
63046;SDS011;62025;39.238;9.126;2023-12-04T11:06:56;4.82;;;1.50;;
63046;SDS011;62025;39.238;9.126;2023-12-04T11:09:24;11.32;;;2.00;;
63046;SDS011;62025;39.238;9.126;2023-12-04T11:11:53;5.55;;;1.83;;
63046;SDS011;62025;39.238;9.126;2023-12-04T11:14:25;3.40;;;1.80;;
63046;SDS011;62025;39.238;9.126;2023-12-04T11:16:57;2.63;;;1.60;;
63046;SDS011;62025;39.238;9.126;2023-12-04T11:22:17;7.88;;;1.50;;
63046;SDS011;62025;39.238;9.126;2023-12-04T11:24:47;5.32;;;1.60;;
63046;SDS011;62025;39.238;9.126;2023-12-04T11:27:19;4.63;;;1.45;;
63046;SDS011;62025;39.238;9.126;2023-12-04T11:29:46;3.70;;;1.30;;
63046;SDS011;62025;39.238;9.126;2023-12-04T11:32:16;4.40;;;1.40;;
63046;SDS011;62025;39.238;9.126;2023-12-04T11:34:55;2.13;;;1.20;;
63046;SDS011;62025;39.238;9.126;2023-12-04T11:37:24;6.07;;;1.73;;
63046;SDS011;62025;39.238;9.126;2023-12-04T11:39:51;4.70;;;1.48;;
63046;SDS011;62025;39.238;9.126;2023-12-04T11:42:19;8.32;;;1.73;;
63046;SDS011;62025;39.238;9.126;2023-12-04T11:44:49;3.50;;;1.25;;
63046;SDS011;62025;39.238;9.126;2023-12-04T11:47:20;3.63;;;1.05;;
63046;SDS011;62025;39.238;9.126;2023-12-04T11:49:46;4.00;;;1.00;;
63046;SDS011;62025;39.238;9.126;2023-12-04T11:52:12;5.10;;;1.35;;
63046;SDS011;62025;39.238;9.126;2023-12-04T11:57:37;4.00;;;1.13;;
63046;SDS011;62025;39.238;9.126;2023-12-04T12:00:14;4.20;;;1.20;;
63046;SDS011;62025;39.238;9.126;2023-12-04T12:05:20;3.42;;;1.27;;
63046;SDS011;62025;39.238;9.126;2023-12-04T12:07:46;4.28;;;1.80;;
63046;SDS011;62025;39.238;9.126;2023-12-04T12:10:13;3.53;;;1.48;;
63046;SDS011;62025;39.238;9.126;2023-12-04T12:12:40;3.63;;;1.30;;
63046;SDS011;62025;39.238;9.126;2023-12-04T12:15:09;5.65;;;1.50;;
63046;SDS011;62025;39.238;9.126;2023-12-04T12:17:40;4.32;;;1.60;;
63046;SDS011;62025;39.238;9.126;2023-12-04T12:20:11;4.43;;;1.40;;
63046;SDS011;62025;39.238;9.126;2023-12-04T12:22:38;3.22;;;1.50;;
63046;SDS011;62025;39.238;9.126;2023-12-04T12:25:10;4.40;;;1.60;;
63046;SDS011;62025;39.238;9.126;2023-12-04T12:27:36;4.75;;;2.00;;
63046;SDS011;62025;39.238;9.126;2023-12-04T12:30:03;4.65;;;1.45;;
63046;SDS011;62025;39.238;9.126;2023-12-04T12:32:33;4.07;;;1.60;;
63046;SDS011;62025;39.238;9.126;2023-12-04T12:35:00;4.78;;;2.00;;
63046;SDS011;62025;39.238;9.126;2023-12-04T12:37:26;6.47;;;1.60;;
63046;SDS011;62025;39.238;9.126;2023-12-04T12:39:53;2.70;;;1.60;;
63046;SDS011;62025;39.238;9.126;2023-12-04T12:42:26;3.17;;;1.33;;
63046;SDS011;62025;39.238;9.126;2023-12-04T12:44:53;5.60;;;1.60;;
63046;SDS011;62025;39.238;9.126;2023-12-04T12:47:21;4.57;;;1.30;;
63046;SDS011;62025;39.238;9.126;2023-12-04T12:49:48;5.35;;;1.33;;
63046;SDS011;62025;39.238;9.126;2023-12-04T12:52:14;3.55;;;1.20;;
63046;SDS011;62025;39.238;9.126;2023-12-04T12:54:41;3.00;;;1.13;;
63046;SDS011;62025;39.238;9.126;2023-12-04T12:57:08;3.63;;;1.40;;
63046;SDS011;62025;39.238;9.126;2023-12-04T12:59:37;3.80;;;1.15;;
63046;SDS011;62025;39.238;9.126;2023-12-04T13:02:07;3.70;;;0.90;;
63046;SDS011;62025;39.238;9.126;2023-12-04T13:04:36;4.20;;;1.40;;
63046;SDS011;62025;39.238;9.126;2023-12-04T13:07:03;3.35;;;1.00;;
63046;SDS011;62025;39.238;9.126;2023-12-04T13:09:31;3.20;;;1.13;;
63046;SDS011;62025;39.238;9.126;2023-12-04T13:12:01;4.18;;;1.40;;
63046;SDS011;62025;39.238;9.126;2023-12-04T13:14:30;3.13;;;1.15;;
63046;SDS011;62025;39.238;9.126;2023-12-04T13:16:57;3.50;;;1.17;;
63046;SDS011;62025;39.238;9.126;2023-12-04T13:19:23;4.15;;;1.33;;
63046;SDS011;62025;39.238;9.126;2023-12-04T13:21:49;5.60;;;1.25;;
63046;SDS011;62025;39.238;9.126;2023-12-04T13:24:15;7.03;;;1.52;;
63046;SDS011;62025;39.238;9.126;2023-12-04T13:26:43;3.30;;;1.08;;
63046;SDS011;62025;39.238;9.126;2023-12-04T13:29:09;3.47;;;1.17;;
63046;SDS011;62025;39.238;9.126;2023-12-04T13:31:36;5.13;;;1.30;;
63046;SDS011;62025;39.238;9.126;2023-12-04T13:34:02;4.18;;;1.13;;
63046;SDS011;62025;39.238;9.126;2023-12-04T13:36:32;4.75;;;1.60;;
63046;SDS011;62025;39.238;9.126;2023-12-04T13:38:59;6.80;;;1.38;;
63046;SDS011;62025;39.238;9.126;2023-12-04T13:41:25;3.30;;;1.10;;
63046;SDS011;62025;39.238;9.126;2023-12-04T13:44:09;7.13;;;1.48;;
63046;SDS011;62025;39.238;9.126;2023-12-04T13:46:39;6.03;;;1.20;;
63046;SDS011;62025;39.238;9.126;2023-12-04T13:49:05;2.47;;;0.90;;
63046;SDS011;62025;39.238;9.126;2023-12-04T13:51:31;7.38;;;2.15;;
63046;SDS011;62025;39.238;9.126;2023-12-04T13:53:57;3.38;;;1.23;;
63046;SDS011;62025;39.238;9.126;2023-12-04T13:56:34;4.90;;;1.20;;
63046;SDS011;62025;39.238;9.126;2023-12-04T13:59:19;2.97;;;1.02;;
63046;SDS011;62025;39.238;9.126;2023-12-04T14:01:47;4.97;;;1.10;;
63046;SDS011;62025;39.238;9.126;2023-12-04T14:04:15;5.28;;;1.20;;
63046;SDS011;62025;39.238;9.126;2023-12-04T14:06:41;4.07;;;1.00;;
63046;SDS011;62025;39.238;9.126;2023-12-04T14:09:07;3.28;;;1.08;;
63046;SDS011;62025;39.238;9.126;2023-12-04T14:11:38;3.15;;;1.60;;
63046;SDS011;62025;39.238;9.126;2023-12-04T14:14:04;3.40;;;1.80;;
63046;SDS011;62025;39.238;9.126;2023-12-04T14:16:30;4.15;;;1.35;;
63046;SDS011;62025;39.238;9.126;2023-12-04T14:18:56;8.57;;;1.50;;
63046;SDS011;62025;39.238;9.126;2023-12-04T14:21:22;3.78;;;1.60;;
63046;SDS011;62025;39.238;9.126;2023-12-04T14:23:48;9.60;;;2.58;;
63046;SDS011;62025;39.238;9.126;2023-12-04T14:26:14;7.00;;;2.78;;
63046;SDS011;62025;39.238;9.126;2023-12-04T14:28:41;5.25;;;1.60;;
63046;SDS011;62025;39.238;9.126;2023-12-04T14:31:07;4.25;;;1.50;;
63046;SDS011;62025;39.238;9.126;2023-12-04T14:33:33;6.90;;;2.00;;
63046;SDS011;62025;39.238;9.126;2023-12-04T14:35:59;3.58;;;1.50;;
63046;SDS011;62025;39.238;9.126;2023-12-04T14:38:25;5.60;;;1.70;;
63046;SDS011;62025;39.238;9.126;2023-12-04T14:40:51;5.88;;;1.42;;
63046;SDS011;62025;39.238;9.126;2023-12-04T14:43:17;5.57;;;2.05;;
63046;SDS011;62025;39.238;9.126;2023-12-04T14:45:43;5.55;;;2.08;;
63046;SDS011;62025;39.238;9.126;2023-12-04T14:48:11;3.60;;;1.80;;
63046;SDS011;62025;39.238;9.126;2023-12-04T14:50:37;4.25;;;2.05;;
63046;SDS011;62025;39.238;9.126;2023-12-04T14:53:04;2.67;;;1.40;;